Airfield :
LOGIN :

Register | Disclaimer

   EN    FR    IT 

 










Legend :    VFR   Marginal VFR   IFR   Intensive IFR   Very Intensive IFR
Visi :
Ceiling :
>= 8 km
>= 3000ft
5 to 8 km
1000 to 3000 ft
1500m to 5 km
500 to 1000 ft
800 to 1500m
200 to 500 ft
< 800m
< 200 ft
Symbols :   Thunderstorms  Fog  Heavy snow  Heavy precipitations  Wind > 20 kt
SIGMETs :     Misc.  Thunderstorms  Icing  Turbulence  Mountain Waves  Volcanic Ashes






- Airport Elevation : 274 ft
- IATA code : PUY


LDPL - Pula

CURRENT METAR :
  • 061700Z 28008KT CAVOK 29/14 Q1006 BECMG 30006KT

EXPIRED METARs :
  • 061630Z 27008KT CAVOK 30/14 Q1006 NOSIG
  • 061600Z 28009KT CAVOK 30/15 Q1007 NOSIG
  • 061530Z 29011KT CAVOK 30/16 Q1007 NOSIG
  • 061500Z 28011KT CAVOK 30/17 Q1007 NOSIG
  • 061430Z 27012KT CAVOK 30/17 Q1007 NOSIG

TAF TAF LDPL
Valid from the 06 at 12:00 until the 07 at 12:00 UTC


061125Z 0612/0712 11008KT CAVOK TX33/0613Z TN17/0705Z
PROB30
TEMPO 0613/0616 28010KT
BECMG 0622/0700 06024G38KT
PROB30
TEMPO 0700/0705 TSRA FEW030CB SCT040
BECMG 0706/0708 06015G25KT
BECMG 0709/0711 06010KT



MET'MAP, your aeronautical weather chart ! - Copyright ORBIFLY December 2007 - Disclaimer

ORBIFLY MET'MAP TEAM :

Programming & Development : Alexandra Zaïnal
Concept & original design : Baudouin d'Aumeries
Assistance for programming : Marc-Olivier Méhu
Technical & hardware support : Manuel Goepfert

Contact : metmap@orbifly.com




SOURCES & CREDITS :

   NOAA